sensor_id;sensor_type;location;lat;lon;timestamp;P1;durP1;ratioP1;P2;durP2;ratioP2
5674;SDS011;2860;54.284;10.158;2023-07-20T00:00:34;2.40;;;2.30;;
5674;SDS011;2860;54.284;10.158;2023-07-20T00:03:09;2.10;;;2.00;;
5674;SDS011;2860;54.284;10.158;2023-07-20T00:05:42;1.75;;;1.75;;
5674;SDS011;2860;54.284;10.158;2023-07-20T00:08:08;1.95;;;1.92;;
5674;SDS011;2860;54.284;10.158;2023-07-20T00:10:34;2.95;;;2.10;;
5674;SDS011;2860;54.284;10.158;2023-07-20T00:12:59;2.40;;;2.20;;
5674;SDS011;2860;54.284;10.158;2023-07-20T00:15:25;1.85;;;1.85;;
5674;SDS011;2860;54.284;10.158;2023-07-20T00:17:50;2.42;;;2.13;;
5674;SDS011;2860;54.284;10.158;2023-07-20T00:20:16;2.35;;;2.33;;
5674;SDS011;2860;54.284;10.158;2023-07-20T00:22:42;2.25;;;2.10;;
5674;SDS011;2860;54.284;10.158;2023-07-20T00:25:08;2.40;;;2.30;;
5674;SDS011;2860;54.284;10.158;2023-07-20T00:27:36;2.70;;;2.60;;
5674;SDS011;2860;54.284;10.158;2023-07-20T00:30:02;1.92;;;1.92;;
5674;SDS011;2860;54.284;10.158;2023-07-20T00:32:29;4.55;;;2.20;;
5674;SDS011;2860;54.284;10.158;2023-07-20T00:34:54;2.53;;;2.42;;
5674;SDS011;2860;54.284;10.158;2023-07-20T00:37:20;1.70;;;1.60;;
5674;SDS011;2860;54.284;10.158;2023-07-20T00:39:45;2.00;;;2.00;;
5674;SDS011;2860;54.284;10.158;2023-07-20T00:42:11;2.25;;;2.25;;
5674;SDS011;2860;54.284;10.158;2023-07-20T00:44:36;2.05;;;1.95;;
5674;SDS011;2860;54.284;10.158;2023-07-20T00:47:02;1.77;;;1.70;;
5674;SDS011;2860;54.284;10.158;2023-07-20T00:49:27;5.05;;;2.92;;
5674;SDS011;2860;54.284;10.158;2023-07-20T00:51:53;2.47;;;2.38;;
5674;SDS011;2860;54.284;10.158;2023-07-20T00:54:19;2.55;;;2.30;;
5674;SDS011;2860;54.284;10.158;2023-07-20T00:56:44;2.40;;;2.28;;
5674;SDS011;2860;54.284;10.158;2023-07-20T00:59:11;2.45;;;2.35;;
5674;SDS011;2860;54.284;10.158;2023-07-20T01:01:36;2.45;;;2.35;;
5674;SDS011;2860;54.284;10.158;2023-07-20T01:04:02;2.33;;;2.33;;
5674;SDS011;2860;54.284;10.158;2023-07-20T01:09:18;2.60;;;2.50;;
5674;SDS011;2860;54.284;10.158;2023-07-20T01:12:05;2.60;;;2.53;;
5674;SDS011;2860;54.284;10.158;2023-07-20T01:14:34;2.55;;;2.45;;
5674;SDS011;2860;54.284;10.158;2023-07-20T01:17:00;2.35;;;2.20;;
5674;SDS011;2860;54.284;10.158;2023-07-20T01:19:26;1.98;;;1.98;;
5674;SDS011;2860;54.284;10.158;2023-07-20T01:27:18;2.38;;;2.33;;
5674;SDS011;2860;54.284;10.158;2023-07-20T01:30:03;2.50;;;2.50;;
5674;SDS011;2860;54.284;10.158;2023-07-20T01:32:39;2.90;;;2.80;;
5674;SDS011;2860;54.284;10.158;2023-07-20T01:35:07;5.07;;;2.85;;
5674;SDS011;2860;54.284;10.158;2023-07-20T01:37:34;2.63;;;2.53;;
5674;SDS011;2860;54.284;10.158;2023-07-20T01:40:02;2.65;;;2.55;;
5674;SDS011;2860;54.284;10.158;2023-07-20T01:42:28;3.17;;;2.97;;
5674;SDS011;2860;54.284;10.158;2023-07-20T01:44:54;2.25;;;2.25;;
5674;SDS011;2860;54.284;10.158;2023-07-20T01:47:20;3.50;;;3.40;;
5674;SDS011;2860;54.284;10.158;2023-07-20T01:49:45;3.80;;;3.63;;
5674;SDS011;2860;54.284;10.158;2023-07-20T01:52:11;3.20;;;3.13;;
5674;SDS011;2860;54.284;10.158;2023-07-20T01:54:36;2.78;;;2.78;;
5674;SDS011;2860;54.284;10.158;2023-07-20T01:57:02;3.60;;;3.38;;
5674;SDS011;2860;54.284;10.158;2023-07-20T01:59:29;3.95;;;3.67;;
5674;SDS011;2860;54.284;10.158;2023-07-20T02:01:54;3.75;;;3.65;;
5674;SDS011;2860;54.284;10.158;2023-07-20T02:04:21;3.83;;;3.72;;
5674;SDS011;2860;54.284;10.158;2023-07-20T02:06:46;4.40;;;4.00;;
5674;SDS011;2860;54.284;10.158;2023-07-20T02:09:12;4.40;;;4.20;;
5674;SDS011;2860;54.284;10.158;2023-07-20T02:11:37;4.85;;;4.75;;
5674;SDS011;2860;54.284;10.158;2023-07-20T02:14:03;3.78;;;3.67;;
5674;SDS011;2860;54.284;10.158;2023-07-20T02:16:28;5.05;;;4.85;;
5674;SDS011;2860;54.284;10.158;2023-07-20T02:18:54;5.28;;;4.82;;
5674;SDS011;2860;54.284;10.158;2023-07-20T02:21:21;5.10;;;4.80;;
5674;SDS011;2860;54.284;10.158;2023-07-20T02:23:47;4.32;;;4.13;;
5674;SDS011;2860;54.284;10.158;2023-07-20T02:26:13;5.25;;;4.60;;
5674;SDS011;2860;54.284;10.158;2023-07-20T02:28:38;5.57;;;4.88;;
5674;SDS011;2860;54.284;10.158;2023-07-20T02:31:04;4.63;;;4.43;;
5674;SDS011;2860;54.284;10.158;2023-07-20T02:33:29;6.15;;;5.43;;
5674;SDS011;2860;54.284;10.158;2023-07-20T02:35:55;5.57;;;5.28;;
5674;SDS011;2860;54.284;10.158;2023-07-20T02:38:20;5.00;;;4.80;;
5674;SDS011;2860;54.284;10.158;2023-07-20T02:40:46;5.90;;;5.60;;
5674;SDS011;2860;54.284;10.158;2023-07-20T02:43:11;4.93;;;4.72;;
5674;SDS011;2860;54.284;10.158;2023-07-20T02:45:40;5.30;;;5.00;;
5674;SDS011;2860;54.284;10.158;2023-07-20T02:48:07;5.22;;;4.95;;
5674;SDS011;2860;54.284;10.158;2023-07-20T02:50:33;5.78;;;5.38;;
5674;SDS011;2860;54.284;10.158;2023-07-20T02:52:59;5.68;;;5.15;;
5674;SDS011;2860;54.284;10.158;2023-07-20T02:55:25;5.07;;;4.80;;
5674;SDS011;2860;54.284;10.158;2023-07-20T02:57:51;4.47;;;3.78;;
5674;SDS011;2860;54.284;10.158;2023-07-20T03:00:16;5.93;;;4.95;;
5674;SDS011;2860;54.284;10.158;2023-07-20T03:02:44;4.85;;;4.60;;
5674;SDS011;2860;54.284;10.158;2023-07-20T03:05:18;5.15;;;4.85;;
5674;SDS011;2860;54.284;10.158;2023-07-20T03:07:43;4.45;;;4.30;;
5674;SDS011;2860;54.284;10.158;2023-07-20T03:10:09;5.32;;;4.60;;
5674;SDS011;2860;54.284;10.158;2023-07-20T03:12:35;5.38;;;4.63;;
5674;SDS011;2860;54.284;10.158;2023-07-20T03:15:01;4.10;;;4.00;;
5674;SDS011;2860;54.284;10.158;2023-07-20T03:17:28;4.97;;;4.78;;
5674;SDS011;2860;54.284;10.158;2023-07-20T03:19:53;5.10;;;4.70;;
5674;SDS011;2860;54.284;10.158;2023-07-20T03:22:19;4.85;;;4.55;;
5674;SDS011;2860;54.284;10.158;2023-07-20T03:24:46;4.75;;;4.50;;
5674;SDS011;2860;54.284;10.158;2023-07-20T03:27:12;4.72;;;4.40;;
5674;SDS011;2860;54.284;10.158;2023-07-20T03:29:37;5.65;;;5.22;;
5674;SDS011;2860;54.284;10.158;2023-07-20T03:32:03;4.40;;;4.20;;
5674;SDS011;2860;54.284;10.158;2023-07-20T03:34:29;5.00;;;4.45;;
5674;SDS011;2860;54.284;10.158;2023-07-20T03:36:54;4.70;;;4.50;;
5674;SDS011;2860;54.284;10.158;2023-07-20T03:39:20;9.15;;;4.50;;
5674;SDS011;2860;54.284;10.158;2023-07-20T03:41:46;3.80;;;3.70;;
5674;SDS011;2860;54.284;10.158;2023-07-20T03:44:12;4.05;;;3.75;;
5674;SDS011;2860;54.284;10.158;2023-07-20T03:46:37;4.18;;;4.07;;
5674;SDS011;2860;54.284;10.158;2023-07-20T03:49:03;3.40;;;3.15;;
5674;SDS011;2860;54.284;10.158;2023-07-20T03:51:28;4.10;;;3.30;;
5674;SDS011;2860;54.284;10.158;2023-07-20T03:53:54;3.13;;;3.03;;
5674;SDS011;2860;54.284;10.158;2023-07-20T03:56:20;3.42;;;3.20;;
5674;SDS011;2860;54.284;10.158;2023-07-20T03:58:45;3.45;;;3.30;;
5674;SDS011;2860;54.284;10.158;2023-07-20T04:01:10;3.10;;;2.67;;
5674;SDS011;2860;54.284;10.158;2023-07-20T04:03:38;2.30;;;2.20;;
5674;SDS011;2860;54.284;10.158;2023-07-20T04:06:03;3.00;;;2.90;;
5674;SDS011;2860;54.284;10.158;2023-07-20T04:08:29;2.55;;;2.50;;
5674;SDS011;2860;54.284;10.158;2023-07-20T04:10:54;2.72;;;2.47;;
5674;SDS011;2860;54.284;10.158;2023-07-20T04:13:20;3.10;;;2.90;;
5674;SDS011;2860;54.284;10.158;2023-07-20T04:15:45;3.03;;;2.88;;
5674;SDS011;2860;54.284;10.158;2023-07-20T04:18:11;7.65;;;3.13;;
5674;SDS011;2860;54.284;10.158;2023-07-20T04:20:37;3.17;;;2.95;;
5674;SDS011;2860;54.284;10.158;2023-07-20T04:23:02;2.85;;;2.75;;
5674;SDS011;2860;54.284;10.158;2023-07-20T04:25:28;3.30;;;3.00;;
5674;SDS011;2860;54.284;10.158;2023-07-20T04:27:53;2.88;;;2.70;;
5674;SDS011;2860;54.284;10.158;2023-07-20T04:30:20;2.78;;;2.67;;
5674;SDS011;2860;54.284;10.158;2023-07-20T04:32:47;2.80;;;2.60;;
5674;SDS011;2860;54.284;10.158;2023-07-20T04:38:09;2.13;;;2.10;;
5674;SDS011;2860;54.284;10.158;2023-07-20T04:40:35;2.33;;;2.33;;
5674;SDS011;2860;54.284;10.158;2023-07-20T04:43:00;2.72;;;2.70;;
5674;SDS011;2860;54.284;10.158;2023-07-20T04:45:26;3.30;;;3.10;;
5674;SDS011;2860;54.284;10.158;2023-07-20T04:47:51;5.47;;;2.55;;
5674;SDS011;2860;54.284;10.158;2023-07-20T04:50:17;2.10;;;2.08;;
5674;SDS011;2860;54.284;10.158;2023-07-20T04:52:42;2.45;;;2.35;;
5674;SDS011;2860;54.284;10.158;2023-07-20T04:55:08;2.72;;;2.53;;
5674;SDS011;2860;54.284;10.158;2023-07-20T04:57:34;2.53;;;2.35;;
5674;SDS011;2860;54.284;10.158;2023-07-20T04:59:59;2.35;;;2.35;;
5674;SDS011;2860;54.284;10.158;2023-07-20T05:02:25;2.92;;;2.72;;
5674;SDS011;2860;54.284;10.158;2023-07-20T05:04:50;4.05;;;2.75;;
5674;SDS011;2860;54.284;10.158;2023-07-20T05:07:16;3.33;;;1.67;;
5674;SDS011;2860;54.284;10.158;2023-07-20T05:09:41;1.60;;;1.60;;
5674;SDS011;2860;54.284;10.158;2023-07-20T05:12:07;6.90;;;1.45;;
5674;SDS011;2860;54.284;10.158;2023-07-20T05:14:33;1.05;;;0.75;;
5674;SDS011;2860;54.284;10.158;2023-07-20T05:16:58;0.95;;;0.95;;
5674;SDS011;2860;54.284;10.158;2023-07-20T05:19:24;3.50;;;0.80;;
5674;SDS011;2860;54.284;10.158;2023-07-20T05:21:50;2.05;;;1.05;;
5674;SDS011;2860;54.284;10.158;2023-07-20T05:24:16;1.88;;;0.68;;
5674;SDS011;2860;54.284;10.158;2023-07-20T05:26:41;1.67;;;0.60;;
5674;SDS011;2860;54.284;10.158;2023-07-20T05:29:07;0.80;;;0.80;;
5674;SDS011;2860;54.284;10.158;2023-07-20T05:31:44;1.20;;;1.02;;
5674;SDS011;2860;54.284;10.158;2023-07-20T05:34:10;0.95;;;0.50;;
5674;SDS011;2860;54.284;10.158;2023-07-20T05:36:35;1.48;;;0.50;;
5674;SDS011;2860;54.284;10.158;2023-07-20T05:39:01;3.28;;;0.55;;
5674;SDS011;2860;54.284;10.158;2023-07-20T05:41:27;1.45;;;0.63;;
5674;SDS011;2860;54.284;10.158;2023-07-20T05:43:52;1.95;;;0.57;;
5674;SDS011;2860;54.284;10.158;2023-07-20T05:46:18;1.08;;;0.60;;
5674;SDS011;2860;54.284;10.158;2023-07-20T05:48:43;1.00;;;1.00;;
5674;SDS011;2860;54.284;10.158;2023-07-20T05:51:09;2.15;;;1.00;;
5674;SDS011;2860;54.284;10.158;2023-07-20T05:53:35;1.65;;;0.80;;
5674;SDS011;2860;54.284;10.158;2023-07-20T05:56:00;0.98;;;0.77;;
5674;SDS011;2860;54.284;10.158;2023-07-20T05:58:26;1.13;;;0.80;;
5674;SDS011;2860;54.284;10.158;2023-07-20T06:00:51;1.95;;;0.65;;
5674;SDS011;2860;54.284;10.158;2023-07-20T06:03:18;0.80;;;0.80;;
5674;SDS011;2860;54.284;10.158;2023-07-20T06:05:46;2.90;;;0.80;;
5674;SDS011;2860;54.284;10.158;2023-07-20T06:08:12;2.35;;;0.60;;
5674;SDS011;2860;54.284;10.158;2023-07-20T06:10:52;2.05;;;1.00;;
5674;SDS011;2860;54.284;10.158;2023-07-20T06:13:21;2.30;;;0.82;;
5674;SDS011;2860;54.284;10.158;2023-07-20T06:15:47;5.43;;;0.80;;
5674;SDS011;2860;54.284;10.158;2023-07-20T06:18:12;0.93;;;0.77;;
5674;SDS011;2860;54.284;10.158;2023-07-20T06:20:38;2.42;;;1.10;;
5674;SDS011;2860;54.284;10.158;2023-07-20T06:23:04;2.25;;;1.00;;
5674;SDS011;2860;54.284;10.158;2023-07-20T06:25:29;2.88;;;0.80;;
5674;SDS011;2860;54.284;10.158;2023-07-20T06:27:55;1.10;;;1.05;;
5674;SDS011;2860;54.284;10.158;2023-07-20T06:30:21;1.80;;;1.70;;
5674;SDS011;2860;54.284;10.158;2023-07-20T06:32:47;3.15;;;1.52;;
5674;SDS011;2860;54.284;10.158;2023-07-20T06:35:12;2.88;;;2.00;;
5674;SDS011;2860;54.284;10.158;2023-07-20T06:37:38;2.67;;;1.55;;
5674;SDS011;2860;54.284;10.158;2023-07-20T06:40:04;2.13;;;1.85;;
5674;SDS011;2860;54.284;10.158;2023-07-20T06:42:30;3.45;;;1.25;;
5674;SDS011;2860;54.284;10.158;2023-07-20T06:44:56;7.90;;;1.40;;
5674;SDS011;2860;54.284;10.158;2023-07-20T06:47:22;2.33;;;1.00;;
5674;SDS011;2860;54.284;10.158;2023-07-20T06:49:48;5.72;;;1.30;;
5674;SDS011;2860;54.284;10.158;2023-07-20T06:52:14;2.88;;;0.98;;
5674;SDS011;2860;54.284;10.158;2023-07-20T06:54:40;2.78;;;1.30;;
5674;SDS011;2860;54.284;10.158;2023-07-20T06:57:05;3.85;;;1.20;;
5674;SDS011;2860;54.284;10.158;2023-07-20T06:59:31;4.35;;;1.58;;
5674;SDS011;2860;54.284;10.158;2023-07-20T07:01:57;2.35;;;1.30;;
5674;SDS011;2860;54.284;10.158;2023-07-20T07:04:22;3.25;;;1.30;;
5674;SDS011;2860;54.284;10.158;2023-07-20T07:06:48;1.90;;;1.00;;
5674;SDS011;2860;54.284;10.158;2023-07-20T07:09:13;4.38;;;1.00;;
5674;SDS011;2860;54.284;10.158;2023-07-20T07:11:39;3.40;;;1.50;;
5674;SDS011;2860;54.284;10.158;2023-07-20T07:14:04;3.13;;;0.93;;
5674;SDS011;2860;54.284;10.158;2023-07-20T07:16:30;2.53;;;1.20;;
5674;SDS011;2860;54.284;10.158;2023-07-20T07:18:55;4.05;;;1.20;;
5674;SDS011;2860;54.284;10.158;2023-07-20T07:21:21;2.10;;;1.10;;
5674;SDS011;2860;54.284;10.158;2023-07-20T07:23:46;3.78;;;1.20;;
5674;SDS011;2860;54.284;10.158;2023-07-20T07:26:13;6.70;;;1.58;;
5674;SDS011;2860;54.284;10.158;2023-07-20T07:28:38;14.93;;;1.35;;
5674;SDS011;2860;54.284;10.158;2023-07-20T07:31:04;1.52;;;1.50;;
5674;SDS011;2860;54.284;10.158;2023-07-20T07:33:31;1.65;;;1.55;;
5674;SDS011;2860;54.284;10.158;2023-07-20T07:35:56;4.25;;;2.13;;
5674;SDS011;2860;54.284;10.158;2023-07-20T07:38:22;2.95;;;1.67;;
5674;SDS011;2860;54.284;10.158;2023-07-20T07:40:48;2.33;;;1.38;;
5674;SDS011;2860;54.284;10.158;2023-07-20T07:43:13;7.53;;;1.92;;
5674;SDS011;2860;54.284;10.158;2023-07-20T07:45:39;2.08;;;1.55;;
5674;SDS011;2860;54.284;10.158;2023-07-20T07:48:05;6.25;;;1.23;;
5674;SDS011;2860;54.284;10.158;2023-07-20T07:50:32;4.25;;;1.20;;
5674;SDS011;2860;54.284;10.158;2023-07-20T07:52:58;5.38;;;1.92;;
5674;SDS011;2860;54.284;10.158;2023-07-20T07:55:24;3.28;;;1.20;;
5674;SDS011;2860;54.284;10.158;2023-07-20T07:57:51;4.60;;;1.55;;
5674;SDS011;2860;54.284;10.158;2023-07-20T08:00:17;6.80;;;1.75;;
5674;SDS011;2860;54.284;10.158;2023-07-20T08:02:44;2.40;;;0.95;;
5674;SDS011;2860;54.284;10.158;2023-07-20T08:05:11;2.65;;;1.42;;
5674;SDS011;2860;54.284;10.158;2023-07-20T08:07:37;4.72;;;1.42;;
5674;SDS011;2860;54.284;10.158;2023-07-20T08:10:03;1.15;;;0.82;;
5674;SDS011;2860;54.284;10.158;2023-07-20T08:12:29;1.45;;;1.10;;
5674;SDS011;2860;54.284;10.158;2023-07-20T08:14:55;2.80;;;1.25;;
5674;SDS011;2860;54.284;10.158;2023-07-20T08:17:20;1.38;;;0.90;;
5674;SDS011;2860;54.284;10.158;2023-07-20T08:19:46;1.35;;;0.90;;
5674;SDS011;2860;54.284;10.158;2023-07-20T08:22:12;3.88;;;0.93;;
5674;SDS011;2860;54.284;10.158;2023-07-20T08:24:40;3.85;;;1.15;;
5674;SDS011;2860;54.284;10.158;2023-07-20T08:27:06;20.13;;;1.50;;
5674;SDS011;2860;54.284;10.158;2023-07-20T08:29:33;2.45;;;0.68;;
5674;SDS011;2860;54.284;10.158;2023-07-20T08:31:59;1.65;;;0.57;;
5674;SDS011;2860;54.284;10.158;2023-07-20T08:34:24;2.65;;;0.70;;
5674;SDS011;2860;54.284;10.158;2023-07-20T08:36:50;0.47;;;0.40;;
5674;SDS011;2860;54.284;10.158;2023-07-20T08:39:15;4.40;;;1.40;;
5674;SDS011;2860;54.284;10.158;2023-07-20T08:41:42;24.17;;;1.42;;
5674;SDS011;2860;54.284;10.158;2023-07-20T08:44:08;1.27;;;0.55;;
5674;SDS011;2860;54.284;10.158;2023-07-20T08:46:35;1.17;;;0.50;;
5674;SDS011;2860;54.284;10.158;2023-07-20T08:49:03;1.38;;;0.50;;
5674;SDS011;2860;54.284;10.158;2023-07-20T08:51:29;2.05;;;0.63;;
5674;SDS011;2860;54.284;10.158;2023-07-20T08:53:55;4.38;;;1.13;;
5674;SDS011;2860;54.284;10.158;2023-07-20T08:56:21;11.18;;;0.88;;
5674;SDS011;2860;54.284;10.158;2023-07-20T08:58:49;1.95;;;0.60;;
5674;SDS011;2860;54.284;10.158;2023-07-20T09:01:16;1.17;;;0.50;;
5674;SDS011;2860;54.284;10.158;2023-07-20T09:03:43;1.65;;;0.93;;
5674;SDS011;2860;54.284;10.158;2023-07-20T09:06:11;1.95;;;0.75;;
5674;SDS011;2860;54.284;10.158;2023-07-20T09:08:38;1.00;;;0.70;;
5674;SDS011;2860;54.284;10.158;2023-07-20T09:11:04;1.98;;;0.60;;
5674;SDS011;2860;54.284;10.158;2023-07-20T09:13:29;75.97;;;3.65;;
5674;SDS011;2860;54.284;10.158;2023-07-20T09:15:56;35.75;;;3.42;;
5674;SDS011;2860;54.284;10.158;2023-07-20T09:18:30;3.47;;;0.40;;
5674;SDS011;2860;54.284;10.158;2023-07-20T09:21:03;2.17;;;0.55;;
5674;SDS011;2860;54.284;10.158;2023-07-20T09:23:31;0.73;;;0.50;;
5674;SDS011;2860;54.284;10.158;2023-07-20T09:25:57;0.47;;;0.40;;
5674;SDS011;2860;54.284;10.158;2023-07-20T09:28:23;1.42;;;0.50;;
5674;SDS011;2860;54.284;10.158;2023-07-20T09:30:48;1.33;;;1.15;;
5674;SDS011;2860;54.284;10.158;2023-07-20T09:33:21;1.90;;;0.50;;
5674;SDS011;2860;54.284;10.158;2023-07-20T09:35:47;1.80;;;0.30;;
5674;SDS011;2860;54.284;10.158;2023-07-20T09:38:13;1.65;;;0.63;;
5674;SDS011;2860;54.284;10.158;2023-07-20T09:40:40;4.88;;;0.32;;
5674;SDS011;2860;54.284;10.158;2023-07-20T09:43:09;4.82;;;0.60;;
5674;SDS011;2860;54.284;10.158;2023-07-20T09:45:35;1.75;;;0.28;;
5674;SDS011;2860;54.284;10.158;2023-07-20T09:48:08;0.80;;;0.40;;
5674;SDS011;2860;54.284;10.158;2023-07-20T09:50:50;0.32;;;0.32;;
5674;SDS011;2860;54.284;10.158;2023-07-20T09:53:16;0.50;;;0.50;;
5674;SDS011;2860;54.284;10.158;2023-07-20T09:55:43;2.78;;;0.98;;
5674;SDS011;2860;54.284;10.158;2023-07-20T09:58:11;1.25;;;0.47;;
5674;SDS011;2860;54.284;10.158;2023-07-20T10:00:37;0.30;;;0.30;;
5674;SDS011;2860;54.284;10.158;2023-07-20T10:03:04;2.50;;;0.60;;
5674;SDS011;2860;54.284;10.158;2023-07-20T10:05:33;0.45;;;0.20;;
5674;SDS011;2860;54.284;10.158;2023-07-20T10:08:01;0.50;;;0.30;;
5674;SDS011;2860;54.284;10.158;2023-07-20T10:10:35;3.08;;;0.50;;
5674;SDS011;2860;54.284;10.158;2023-07-20T10:13:10;0.30;;;0.30;;
5674;SDS011;2860;54.284;10.158;2023-07-20T10:15:46;0.45;;;0.25;;
5674;SDS011;2860;54.284;10.158;2023-07-20T10:18:22;0.98;;;0.15;;
5674;SDS011;2860;54.284;10.158;2023-07-20T10:20:54;0.75;;;0.20;;
5674;SDS011;2860;54.284;10.158;2023-07-20T10:23:22;0.30;;;0.30;;
5674;SDS011;2860;54.284;10.158;2023-07-20T10:25:48;0.20;;;0.20;;
5674;SDS011;2860;54.284;10.158;2023-07-20T10:28:14;0.30;;;0.30;;
5674;SDS011;2860;54.284;10.158;2023-07-20T10:30:41;0.50;;;0.20;;
5674;SDS011;2860;54.284;10.158;2023-07-20T10:33:07;1.55;;;0.30;;
5674;SDS011;2860;54.284;10.158;2023-07-20T10:41:20;0.77;;;0.50;;
5674;SDS011;2860;54.284;10.158;2023-07-20T10:43:49;5.32;;;0.82;;
5674;SDS011;2860;54.284;10.158;2023-07-20T10:46:19;3.17;;;0.50;;
5674;SDS011;2860;54.284;10.158;2023-07-20T10:49:08;0.60;;;0.60;;
5674;SDS011;2860;54.284;10.158;2023-07-20T10:51:41;5.85;;;0.70;;
5674;SDS011;2860;54.284;10.158;2023-07-20T10:56:44;3.30;;;0.82;;
5674;SDS011;2860;54.284;10.158;2023-07-20T10:59:19;2.30;;;0.70;;
5674;SDS011;2860;54.284;10.158;2023-07-20T11:02:02;3.42;;;0.50;;
5674;SDS011;2860;54.284;10.158;2023-07-20T11:07:06;0.65;;;0.47;;
5674;SDS011;2860;54.284;10.158;2023-07-20T11:09:35;4.28;;;0.75;;
5674;SDS011;2860;54.284;10.158;2023-07-20T11:14:40;0.82;;;0.40;;
5674;SDS011;2860;54.284;10.158;2023-07-20T11:17:13;0.55;;;0.43;;
5674;SDS011;2860;54.284;10.158;2023-07-20T11:19:40;0.90;;;0.60;;
5674;SDS011;2860;54.284;10.158;2023-07-20T11:22:06;5.18;;;0.50;;
5674;SDS011;2860;54.284;10.158;2023-07-20T11:24:33;1.65;;;0.57;;
5674;SDS011;2860;54.284;10.158;2023-07-20T11:26:58;3.15;;;0.60;;
5674;SDS011;2860;54.284;10.158;2023-07-20T11:29:26;1.13;;;0.70;;
5674;SDS011;2860;54.284;10.158;2023-07-20T11:31:51;4.30;;;0.82;;
5674;SDS011;2860;54.284;10.158;2023-07-20T11:34:18;7.53;;;1.17;;
5674;SDS011;2860;54.284;10.158;2023-07-20T11:36:47;1.85;;;1.17;;
5674;SDS011;2860;54.284;10.158;2023-07-20T11:39:15;2.90;;;1.40;;
5674;SDS011;2860;54.284;10.158;2023-07-20T11:41:54;1.20;;;0.77;;
5674;SDS011;2860;54.284;10.158;2023-07-20T11:44:21;5.00;;;0.73;;
5674;SDS011;2860;54.284;10.158;2023-07-20T11:46:58;2.92;;;1.10;;
5674;SDS011;2860;54.284;10.158;2023-07-20T11:49:26;4.70;;;0.70;;
5674;SDS011;2860;54.284;10.158;2023-07-20T11:51:51;3.50;;;0.80;;
5674;SDS011;2860;54.284;10.158;2023-07-20T11:54:17;2.42;;;0.88;;
5674;SDS011;2860;54.284;10.158;2023-07-20T11:56:43;2.00;;;0.40;;
5674;SDS011;2860;54.284;10.158;2023-07-20T11:59:09;2.33;;;0.80;;
5674;SDS011;2860;54.284;10.158;2023-07-20T12:01:34;2.15;;;1.85;;
5674;SDS011;2860;54.284;10.158;2023-07-20T12:04:00;2.90;;;0.60;;
5674;SDS011;2860;54.284;10.158;2023-07-20T12:06:28;4.13;;;0.70;;
5674;SDS011;2860;54.284;10.158;2023-07-20T12:08:54;3.22;;;0.93;;
5674;SDS011;2860;54.284;10.158;2023-07-20T12:11:33;3.10;;;0.70;;
5674;SDS011;2860;54.284;10.158;2023-07-20T12:14:03;1.23;;;0.63;;
5674;SDS011;2860;54.284;10.158;2023-07-20T12:16:32;3.55;;;0.60;;
5674;SDS011;2860;54.284;10.158;2023-07-20T12:21:39;0.95;;;0.57;;
5674;SDS011;2860;54.284;10.158;2023-07-20T12:24:08;2.30;;;0.60;;
5674;SDS011;2860;54.284;10.158;2023-07-20T12:26:35;2.47;;;0.77;;
5674;SDS011;2860;54.284;10.158;2023-07-20T12:29:00;3.42;;;1.20;;
5674;SDS011;2860;54.284;10.158;2023-07-20T12:31:26;2.42;;;0.93;;
5674;SDS011;2860;54.284;10.158;2023-07-20T12:33:53;3.92;;;1.27;;
5674;SDS011;2860;54.284;10.158;2023-07-20T12:36:22;3.42;;;0.60;;
5674;SDS011;2860;54.284;10.158;2023-07-20T12:38:48;4.38;;;0.68;;
5674;SDS011;2860;54.284;10.158;2023-07-20T12:41:14;0.80;;;0.60;;
5674;SDS011;2860;54.284;10.158;2023-07-20T12:43:42;1.48;;;0.90;;
5674;SDS011;2860;54.284;10.158;2023-07-20T12:46:09;0.90;;;0.60;;
5674;SDS011;2860;54.284;10.158;2023-07-20T12:48:39;1.30;;;0.63;;
5674;SDS011;2860;54.284;10.158;2023-07-20T12:51:07;4.93;;;0.55;;
5674;SDS011;2860;54.284;10.158;2023-07-20T12:53:33;0.50;;;0.50;;
5674;SDS011;2860;54.284;10.158;2023-07-20T12:55:59;2.85;;;0.63;;
5674;SDS011;2860;54.284;10.158;2023-07-20T12:58:25;5.82;;;0.65;;
5674;SDS011;2860;54.284;10.158;2023-07-20T13:00:54;5.57;;;0.80;;
5674;SDS011;2860;54.284;10.158;2023-07-20T13:03:20;5.88;;;0.85;;
5674;SDS011;2860;54.284;10.158;2023-07-20T13:05:46;2.10;;;0.80;;
5674;SDS011;2860;54.284;10.158;2023-07-20T13:08:12;0.82;;;0.80;;
5674;SDS011;2860;54.284;10.158;2023-07-20T13:10:38;7.82;;;0.90;;
5674;SDS011;2860;54.284;10.158;2023-07-20T13:13:04;4.03;;;1.23;;
5674;SDS011;2860;54.284;10.158;2023-07-20T13:15:31;6.10;;;1.00;;
5674;SDS011;2860;54.284;10.158;2023-07-20T13:17:58;3.72;;;0.60;;
5674;SDS011;2860;54.284;10.158;2023-07-20T13:20:24;1.67;;;0.88;;
5674;SDS011;2860;54.284;10.158;2023-07-20T13:22:50;0.82;;;0.50;;
5674;SDS011;2860;54.284;10.158;2023-07-20T13:25:16;3.92;;;0.75;;
5674;SDS011;2860;54.284;10.158;2023-07-20T13:27:41;1.02;;;0.68;;
5674;SDS011;2860;54.284;10.158;2023-07-20T13:30:07;3.67;;;0.73;;
5674;SDS011;2860;54.284;10.158;2023-07-20T13:32:35;0.55;;;0.40;;
5674;SDS011;2860;54.284;10.158;2023-07-20T13:35:01;0.40;;;0.40;;
5674;SDS011;2860;54.284;10.158;2023-07-20T13:37:27;0.52;;;0.40;;
5674;SDS011;2860;54.284;10.158;2023-07-20T13:39:53;2.53;;;1.13;;
5674;SDS011;2860;54.284;10.158;2023-07-20T13:42:19;0.30;;;0.30;;
5674;SDS011;2860;54.284;10.158;2023-07-20T13:44:46;1.17;;;0.47;;
5674;SDS011;2860;54.284;10.158;2023-07-20T13:47:12;0.50;;;0.50;;
5674;SDS011;2860;54.284;10.158;2023-07-20T13:49:38;5.75;;;0.75;;
5674;SDS011;2860;54.284;10.158;2023-07-20T13:52:04;0.50;;;0.50;;
5674;SDS011;2860;54.284;10.158;2023-07-20T13:54:30;1.02;;;0.50;;
5674;SDS011;2860;54.284;10.158;2023-07-20T13:56:55;2.45;;;0.68;;
5674;SDS011;2860;54.284;10.158;2023-07-20T13:59:21;1.38;;;0.70;;
5674;SDS011;2860;54.284;10.158;2023-07-20T14:01:47;4.00;;;0.77;;
5674;SDS011;2860;54.284;10.158;2023-07-20T14:04:14;1.75;;;0.70;;
5674;SDS011;2860;54.284;10.158;2023-07-20T14:06:40;1.27;;;0.65;;
5674;SDS011;2860;54.284;10.158;2023-07-20T14:09:05;1.63;;;0.50;;
5674;SDS011;2860;54.284;10.158;2023-07-20T14:11:31;2.80;;;1.13;;
5674;SDS011;2860;54.284;10.158;2023-07-20T14:13:56;3.35;;;0.93;;
5674;SDS011;2860;54.284;10.158;2023-07-20T14:16:23;1.80;;;0.65;;
5674;SDS011;2860;54.284;10.158;2023-07-20T14:18:49;2.30;;;0.68;;
5674;SDS011;2860;54.284;10.158;2023-07-20T14:21:16;2.67;;;0.50;;
5674;SDS011;2860;54.284;10.158;2023-07-20T14:23:44;3.03;;;0.65;;
5674;SDS011;2860;54.284;10.158;2023-07-20T14:26:11;4.25;;;0.80;;
5674;SDS011;2860;54.284;10.158;2023-07-20T14:28:37;1.73;;;0.60;;
5674;SDS011;2860;54.284;10.158;2023-07-20T14:31:03;1.00;;;0.38;;
5674;SDS011;2860;54.284;10.158;2023-07-20T14:33:28;2.35;;;0.55;;
5674;SDS011;2860;54.284;10.158;2023-07-20T14:35:57;2.42;;;0.40;;
5674;SDS011;2860;54.284;10.158;2023-07-20T14:38:22;0.63;;;0.60;;
5674;SDS011;2860;54.284;10.158;2023-07-20T14:40:48;1.23;;;0.60;;
5674;SDS011;2860;54.284;10.158;2023-07-20T14:43:13;3.15;;;0.60;;
5674;SDS011;2860;54.284;10.158;2023-07-20T14:45:40;4.40;;;0.80;;
5674;SDS011;2860;54.284;10.158;2023-07-20T14:48:06;1.90;;;0.80;;
5674;SDS011;2860;54.284;10.158;2023-07-20T14:50:32;0.45;;;0.43;;
5674;SDS011;2860;54.284;10.158;2023-07-20T14:52:58;1.75;;;0.70;;
5674;SDS011;2860;54.284;10.158;2023-07-20T14:55:23;3.70;;;0.50;;
5674;SDS011;2860;54.284;10.158;2023-07-20T14:57:50;1.33;;;0.60;;
5674;SDS011;2860;54.284;10.158;2023-07-20T15:00:15;2.25;;;0.60;;
5674;SDS011;2860;54.284;10.158;2023-07-20T15:02:41;1.85;;;0.70;;
5674;SDS011;2860;54.284;10.158;2023-07-20T15:05:09;1.60;;;0.60;;
5674;SDS011;2860;54.284;10.158;2023-07-20T15:07:35;0.52;;;0.52;;
5674;SDS011;2860;54.284;10.158;2023-07-20T15:10:02;2.15;;;0.70;;
5674;SDS011;2860;54.284;10.158;2023-07-20T15:12:31;3.63;;;1.23;;
5674;SDS011;2860;54.284;10.158;2023-07-20T15:15:06;1.02;;;0.40;;
5674;SDS011;2860;54.284;10.158;2023-07-20T15:17:33;1.05;;;0.60;;
5674;SDS011;2860;54.284;10.158;2023-07-20T15:20:00;0.70;;;0.70;;
5674;SDS011;2860;54.284;10.158;2023-07-20T15:22:30;0.50;;;0.50;;
5674;SDS011;2860;54.284;10.158;2023-07-20T15:24:56;2.90;;;1.33;;